createdAt,value
2017-11-21T00:01:07.508Z,43.67
2017-11-21T00:03:38.498Z,30.93
2017-11-21T00:06:08.988Z,35.07
2017-11-21T00:08:43.839Z,32.83
2017-11-21T00:11:14.864Z,36.83
2017-11-21T00:13:45.536Z,34.13
2017-11-21T00:16:18.668Z,40.93
2017-11-21T00:18:49.849Z,36.70
2017-11-21T00:21:20.899Z,38.13
2017-11-21T00:23:51.878Z,39.60
2017-11-21T00:26:23.032Z,34.50
2017-11-21T00:28:53.966Z,34.93
2017-11-21T00:31:24.855Z,31.00
2017-11-21T00:33:55.814Z,30.33
2017-11-21T00:36:27.066Z,45.00
2017-11-21T00:38:57.993Z,32.50
2017-11-21T00:41:30.301Z,35.33
2017-11-21T00:44:01.426Z,45.47
2017-11-21T00:46:32.177Z,34.53
2017-11-21T00:49:02.801Z,38.67
2017-11-21T00:51:33.242Z,32.83
2017-11-21T00:54:04.844Z,35.73
2017-11-21T00:56:37.247Z,39.80
2017-11-21T00:59:07.975Z,34.20
2017-11-21T01:01:38.926Z,36.90
2017-11-21T01:05:39.565Z,33.40
2017-11-21T01:08:10.258Z,26.90
2017-11-21T01:10:41.152Z,21.60
2017-11-21T01:13:12.738Z,23.60
2017-11-21T01:15:44.267Z,19.73
2017-11-21T01:18:15.343Z,24.40
2017-11-21T01:20:46.928Z,21.73
2017-11-21T01:23:17.751Z,19.37
2017-11-21T01:25:49.006Z,16.60
2017-11-21T01:28:20.164Z,21.10
2017-11-21T01:30:51.630Z,14.20
2017-11-21T01:33:23.710Z,16.03
2017-11-21T01:35:55.208Z,17.93
2017-11-21T01:38:30.566Z,16.97
2017-11-21T01:41:02.308Z,14.17
2017-11-21T01:43:33.147Z,16.33
2017-11-21T01:46:04.040Z,14.50
2017-11-21T01:48:34.655Z,15.07
2017-11-21T01:51:06.437Z,11.57
2017-11-21T01:53:38.735Z,12.80
2017-11-21T01:56:09.691Z,15.47
2017-11-21T01:58:40.807Z,8.63
2017-11-21T02:01:12.986Z,12.90
2017-11-21T02:03:44.202Z,12.37
2017-11-21T02:06:14.763Z,11.47
2017-11-21T02:08:45.515Z,11.57
2017-11-21T02:11:16.352Z,11.83
2017-11-21T02:13:47.693Z,9.87
2017-11-21T02:16:19.784Z,7.50
2017-11-21T02:18:50.384Z,8.13
2017-11-21T02:32:27.341Z,10.07
2017-11-21T02:34:57.864Z,11.07
2017-11-21T02:37:28.676Z,14.90
2017-11-21T02:40:00.337Z,12.40
2017-11-21T02:42:31.011Z,14.13
2017-11-21T02:45:01.606Z,11.80
2017-11-21T02:47:34.307Z,19.67
2017-11-21T02:50:04.932Z,18.23
2017-11-21T02:52:38.290Z,15.90
2017-11-21T02:55:10.243Z,13.10
2017-11-21T02:57:42.642Z,15.07
2017-11-21T03:00:22.693Z,15.33
2017-11-21T03:02:55.308Z,11.87
2017-11-21T03:05:28.715Z,14.90
2017-11-21T03:08:03.023Z,18.47
2017-11-21T03:10:33.643Z,21.17
2017-11-21T03:13:04.386Z,16.53
2017-11-21T03:15:35.098Z,19.07
2017-11-21T03:18:05.549Z,21.70
2017-11-21T03:20:45.915Z,19.90
2017-11-21T03:26:26.901Z,18.03
2017-11-21T03:29:03.708Z,20.13
2017-11-21T03:31:35.226Z,18.63
2017-11-21T03:34:06.111Z,15.27
2017-11-21T03:36:40.759Z,21.37
2017-11-21T03:39:24.526Z,15.80
2017-11-21T03:42:01.277Z,15.80
2017-11-21T03:44:37.732Z,15.07
2017-11-21T03:47:11.813Z,14.37
2017-11-21T03:49:54.036Z,12.10
2017-11-21T03:52:30.702Z,15.03
2017-11-21T03:55:06.908Z,17.00
2017-11-21T03:57:42.269Z,15.67
2017-11-21T04:00:19.020Z,15.60
2017-11-21T04:02:55.502Z,16.33
2017-11-21T04:05:28.721Z,16.53
2017-11-21T04:08:01.330Z,19.03
2017-11-21T04:10:31.981Z,14.00
2017-11-21T04:13:02.864Z,14.00
2017-11-21T04:15:35.418Z,17.60
2017-11-21T04:18:09.291Z,16.73
2017-11-21T04:20:40.567Z,21.27
2017-11-21T04:23:14.027Z,25.00
2017-11-21T04:25:45.645Z,17.30
2017-11-21T04:28:16.150Z,19.80
2017-11-21T04:30:47.063Z,22.13
2017-11-21T04:33:18.389Z,18.10
2017-11-21T04:35:49.266Z,20.87
2017-11-21T04:38:21.699Z,22.00
2017-11-21T04:40:52.096Z,19.93
2017-11-21T04:43:22.932Z,23.13
2017-11-21T04:45:53.417Z,19.60
2017-11-21T04:48:23.840Z,22.17
2017-11-21T04:50:56.690Z,18.30
2017-11-21T04:53:27.881Z,20.13
2017-11-21T04:56:02.408Z,19.43
2017-11-21T04:58:36.031Z,20.97
2017-11-21T05:01:08.914Z,20.70
2017-11-21T05:03:40.904Z,25.07
2017-11-21T05:06:11.462Z,29.47
2017-11-21T05:08:43.742Z,23.23
2017-11-21T05:11:14.194Z,25.50
2017-11-21T05:13:48.157Z,25.07
2017-11-21T05:16:18.854Z,26.20
2017-11-21T05:18:55.849Z,28.63
2017-11-21T05:21:26.521Z,29.20
2017-11-21T05:23:56.911Z,29.00
2017-11-21T05:26:28.648Z,27.93
2017-11-21T05:28:59.765Z,23.20
2017-11-21T05:31:31.979Z,32.70
2017-11-21T05:34:02.465Z,26.63
2017-11-21T05:36:32.955Z,28.10
2017-11-21T05:39:04.689Z,26.30
2017-11-21T05:41:35.917Z,28.53
2017-11-21T05:46:51.422Z,21.70
2017-11-21T05:49:22.061Z,22.03
2017-11-21T05:51:52.457Z,27.43
2017-11-21T05:54:22.994Z,41.10
2017-11-21T05:56:53.861Z,23.57
2017-11-21T05:59:24.092Z,26.60
2017-11-21T06:01:54.931Z,20.23
2017-11-21T06:04:28.581Z,24.20
2017-11-21T06:07:00.485Z,23.13
2017-11-21T06:09:31.954Z,22.03
2017-11-21T06:12:03.173Z,26.00
2017-11-21T06:14:33.586Z,25.03
2017-11-21T06:17:04.551Z,26.13
2017-11-21T06:19:37.206Z,19.53
2017-11-21T06:22:07.439Z,21.53
2017-11-21T06:24:37.869Z,26.77
2017-11-21T06:27:08.805Z,24.57
2017-11-21T06:29:39.174Z,24.27
2017-11-21T06:32:10.873Z,28.13
2017-11-21T06:34:41.169Z,30.53
2017-11-21T06:37:11.740Z,35.70
2017-11-21T06:39:42.157Z,26.80
2017-11-21T06:42:13.484Z,33.13
2017-11-21T06:44:48.473Z,34.93
2017-11-21T06:47:18.890Z,30.73
2017-11-21T06:49:49.727Z,25.90
2017-11-21T06:52:21.348Z,33.97
2017-11-21T06:54:52.716Z,28.23
2017-11-21T06:57:23.999Z,36.10
2017-11-21T06:59:54.602Z,27.80
2017-11-21T07:02:27.076Z,33.93
2017-11-21T07:04:57.487Z,40.53
2017-11-21T07:07:27.847Z,42.77
2017-11-21T07:09:58.339Z,35.43
2017-11-21T07:12:29.413Z,40.00
2017-11-21T07:14:59.976Z,34.00
2017-11-21T07:17:30.338Z,30.00
2017-11-21T07:20:00.541Z,40.97
2017-11-21T07:22:30.696Z,35.07
2017-11-21T07:25:01.005Z,38.27
2017-11-21T07:27:31.784Z,33.67
2017-11-21T07:30:02.237Z,34.20
2017-11-21T07:32:32.580Z,30.17
2017-11-21T07:35:02.730Z,25.73
2017-11-21T07:37:32.899Z,27.10
2017-11-21T07:40:03.711Z,31.07
2017-11-21T07:42:34.535Z,33.77
2017-11-21T07:45:05.085Z,34.20
2017-11-21T07:47:35.415Z,33.10
2017-11-21T07:50:05.634Z,33.93
2017-11-21T07:52:36.011Z,30.83
2017-11-21T07:55:06.481Z,35.73
2017-11-21T07:57:36.712Z,30.40
2017-11-21T08:00:08.157Z,26.80
2017-11-21T08:02:39.287Z,28.53
2017-11-21T08:05:09.552Z,28.57
2017-11-21T08:07:40.205Z,33.87
2017-11-21T08:10:10.547Z,31.50
2017-11-21T08:12:41.059Z,30.60
2017-11-21T08:15:12.579Z,35.93
2017-11-21T08:17:43.215Z,33.90
2017-11-21T08:20:13.991Z,34.43
2017-11-21T08:22:45.450Z,50.17
2017-11-21T08:25:16.180Z,37.80
2017-11-21T08:27:46.968Z,44.60
2017-11-21T08:30:17.520Z,36.47
2017-11-21T08:32:48.136Z,37.20
2017-11-21T08:35:18.923Z,43.30
2017-11-21T08:37:49.344Z,39.90
2017-11-21T08:40:19.912Z,40.63
2017-11-21T08:42:50.342Z,36.07
2017-11-21T08:45:20.879Z,36.60
2017-11-21T08:47:51.312Z,34.53
2017-11-21T08:50:22.777Z,33.67
2017-11-21T08:52:53.927Z,34.37
2017-11-21T08:55:25.194Z,42.33
2017-11-21T08:57:55.755Z,33.50
2017-11-21T09:00:27.891Z,43.47
2017-11-21T09:02:58.481Z,38.30
2017-11-21T09:05:29.301Z,35.10
2017-11-21T09:07:59.843Z,33.20
2017-11-21T09:10:31.174Z,30.53
2017-11-21T09:13:02.101Z,37.53
2017-11-21T09:15:32.574Z,33.63
2017-11-21T09:18:03.862Z,36.87
2017-11-21T09:20:34.665Z,37.23
2017-11-21T09:23:05.141Z,35.97
2017-11-21T09:25:44.084Z,38.13
2017-11-21T09:28:15.459Z,33.90
2017-11-21T09:30:47.034Z,31.83
2017-11-21T09:33:17.428Z,34.07
2017-11-21T09:35:50.920Z,31.23
2017-11-21T09:38:21.860Z,28.67
2017-11-21T09:40:52.229Z,27.20
2017-11-21T09:43:22.799Z,29.10
2017-11-21T09:45:53.610Z,29.20
2017-11-21T09:48:26.255Z,30.57
2017-11-21T09:50:58.298Z,29.37
2017-11-21T09:53:29.296Z,27.53
2017-11-21T09:56:04.965Z,22.40
2017-11-21T09:58:35.679Z,27.47
2017-11-21T10:01:06.133Z,28.53
2017-11-21T10:03:37.139Z,29.70
2017-11-21T10:06:07.549Z,29.60
2017-11-21T10:08:38.066Z,27.67
2017-11-21T10:11:08.693Z,31.27
2017-11-21T10:13:40.123Z,26.80
2017-11-21T10:16:10.608Z,27.40
2017-11-21T10:18:41.250Z,30.00
2017-11-21T10:21:11.576Z,26.00
2017-11-21T10:23:42.090Z,27.70
2017-11-21T10:26:12.714Z,24.33
2017-11-21T10:28:43.491Z,29.10
2017-11-21T10:31:14.205Z,29.73
2017-11-21T10:33:44.604Z,25.53
2017-11-21T10:36:15.002Z,22.47
2017-11-21T10:38:46.248Z,29.20
2017-11-21T10:41:17.279Z,29.27
2017-11-21T10:43:47.872Z,23.70
2017-11-21T10:46:18.746Z,31.10
2017-11-21T10:48:50.167Z,29.77
2017-11-21T10:51:25.912Z,32.23
2017-11-21T10:53:56.454Z,28.80
2017-11-21T10:56:27.194Z,28.87
2017-11-21T10:58:58.952Z,31.27
2017-11-21T11:01:29.429Z,33.13
2017-11-21T11:03:59.900Z,24.50
2017-11-21T11:06:32.748Z,26.40
2017-11-21T11:09:04.063Z,26.87
2017-11-21T11:11:35.242Z,35.30
2017-11-21T11:14:05.802Z,26.80
2017-11-21T11:16:37.249Z,26.83
2017-11-21T11:19:09.033Z,33.00
2017-11-21T11:21:39.458Z,32.50
2017-11-21T11:24:10.579Z,25.67
2017-11-21T11:26:41.414Z,31.13
2017-11-21T11:29:17.496Z,29.23
2017-11-21T11:31:48.158Z,26.00
2017-11-21T11:34:18.916Z,28.90
2017-11-21T11:36:49.168Z,26.57
2017-11-21T11:39:19.520Z,23.60
2017-11-21T11:41:52.328Z,24.40
2017-11-21T11:44:22.493Z,23.47
2017-11-21T11:46:52.798Z,26.70
2017-11-21T11:49:23.746Z,26.80
2017-11-21T11:51:54.801Z,24.40
2017-11-21T11:54:25.313Z,24.33
2017-11-21T11:56:55.923Z,23.10
2017-11-21T11:59:27.190Z,22.07
2017-11-21T12:01:57.817Z,23.07
2017-11-21T12:04:28.675Z,21.90
2017-11-21T12:06:59.117Z,21.03
2017-11-21T12:09:31.740Z,22.00
2017-11-21T12:12:02.996Z,25.53
2017-11-21T12:14:34.131Z,17.93
2017-11-21T12:17:04.416Z,17.77
2017-11-21T12:19:40.219Z,15.70
2017-11-21T12:22:17.562Z,15.87
2017-11-21T12:24:53.205Z,16.10
2017-11-21T12:27:33.268Z,18.40
2017-11-21T12:30:04.095Z,13.40
2017-11-21T12:32:34.750Z,13.47
2017-11-21T12:35:05.382Z,13.03
2017-11-21T12:37:35.850Z,11.50
2017-11-21T12:40:07.608Z,12.70
2017-11-21T12:42:38.245Z,11.13
2017-11-21T12:45:09.528Z,10.37
2017-11-21T12:47:40.084Z,11.47
2017-11-21T12:50:11.333Z,7.07
2017-11-21T12:52:41.554Z,9.80
2017-11-21T12:55:12.277Z,11.20
2017-11-21T12:57:42.717Z,6.93
2017-11-21T13:00:13.590Z,5.10
2017-11-21T13:02:44.965Z,5.63
2017-11-21T13:05:15.659Z,6.60
2017-11-21T13:07:47.038Z,4.87
2017-11-21T13:10:17.643Z,5.37
2017-11-21T13:12:49.989Z,5.73
2017-11-21T13:15:20.792Z,4.83
2017-11-21T13:17:51.662Z,5.97
2017-11-21T13:20:22.090Z,7.77
2017-11-21T13:22:52.536Z,4.20
2017-11-21T13:25:23.130Z,6.70
2017-11-21T13:27:54.326Z,5.40
2017-11-21T13:30:26.037Z,5.03
2017-11-21T13:32:56.245Z,4.37
2017-11-21T13:35:26.937Z,4.80
2017-11-21T13:37:57.247Z,3.67
2017-11-21T13:40:29.019Z,3.87
2017-11-21T13:42:59.549Z,2.33
2017-11-21T13:45:30.111Z,4.80
2017-11-21T13:48:00.825Z,3.50
2017-11-21T13:50:31.432Z,3.00
2017-11-21T13:53:01.643Z,3.37
2017-11-21T13:55:32.036Z,2.50
2017-11-21T13:58:02.674Z,2.23
2017-11-21T14:00:33.132Z,3.33
2017-11-21T14:03:03.467Z,2.40
2017-11-21T14:05:34.531Z,3.37
2017-11-21T14:08:05.339Z,3.93
2017-11-21T14:10:35.934Z,3.47
2017-11-21T14:13:06.713Z,2.80
2017-11-21T14:15:37.793Z,2.33
2017-11-21T14:18:17.601Z,2.77
2017-11-21T14:20:47.901Z,3.67
2017-11-21T14:23:18.382Z,2.97
2017-11-21T14:25:48.912Z,4.00
2017-11-21T14:28:19.461Z,3.63
2017-11-21T14:30:50.577Z,3.20
2017-11-21T14:33:21.847Z,2.77
2017-11-21T14:35:52.479Z,2.23
2017-11-21T14:38:24.811Z,4.13
2017-11-21T14:41:12.357Z,5.13
2017-11-21T14:43:45.112Z,6.13
2017-11-21T14:46:29.656Z,6.10
2017-11-21T14:49:03.898Z,6.00
2017-11-21T14:51:36.543Z,6.10
2017-11-21T14:54:07.537Z,8.90
2017-11-21T14:56:38.398Z,7.83
2017-11-21T14:59:08.985Z,7.33
2017-11-21T15:01:39.720Z,10.93
2017-11-21T15:04:12.651Z,10.13
2017-11-21T15:06:45.386Z,10.03
2017-11-21T15:09:17.077Z,8.33
2017-11-21T15:11:47.805Z,11.00
2017-11-21T15:14:20.062Z,11.53
2017-11-21T15:16:52.984Z,13.30
2017-11-21T15:19:47.725Z,13.23
2017-11-21T15:22:19.840Z,12.10
2017-11-21T15:24:52.538Z,14.63
2017-11-21T15:27:36.088Z,12.87
2017-11-21T15:30:13.077Z,17.73
2017-11-21T15:33:05.720Z,20.23
2017-11-21T15:35:54.570Z,25.23
2017-11-21T15:38:26.336Z,20.70
2017-11-21T15:41:06.790Z,25.47
2017-11-21T15:43:37.748Z,22.80
2017-11-21T15:46:08.658Z,23.23
2017-11-21T15:48:40.154Z,22.60
2017-11-21T15:51:10.910Z,21.20
2017-11-21T15:53:41.208Z,20.77
2017-11-21T15:56:13.388Z,20.70
2017-11-21T15:58:43.774Z,17.43
2017-11-21T16:01:14.283Z,24.53
2017-11-21T16:03:44.787Z,22.30
2017-11-21T16:06:20.361Z,20.80
2017-11-21T16:09:00.431Z,23.97
2017-11-21T16:11:32.873Z,23.63
2017-11-21T16:14:04.741Z,24.67
2017-11-21T16:16:38.956Z,27.23
2017-11-21T16:19:12.891Z,26.33
2017-11-21T16:21:46.900Z,27.80
2017-11-21T16:24:22.121Z,29.03
2017-11-21T16:26:55.699Z,23.43
2017-11-21T16:29:30.111Z,26.67
2017-11-21T16:32:02.117Z,20.07
2017-11-21T16:34:39.310Z,29.60
2017-11-21T16:37:17.202Z,23.07
2017-11-21T16:39:47.739Z,26.33
2017-11-21T16:42:18.723Z,29.23
2017-11-21T16:44:49.272Z,34.23
2017-11-21T16:47:19.747Z,32.80
2017-11-21T16:49:52.445Z,34.80
2017-11-21T16:52:23.247Z,27.63
2017-11-21T16:54:53.772Z,23.20
2017-11-21T16:57:24.428Z,20.60
2017-11-21T16:59:55.315Z,22.00
2017-11-21T17:02:26.107Z,15.13
2017-11-21T17:04:57.155Z,16.57
2017-11-21T17:07:40.833Z,21.83
2017-11-21T17:10:11.293Z,18.60
2017-11-21T17:12:41.697Z,20.20
2017-11-21T17:15:15.962Z,21.63
2017-11-21T17:17:47.750Z,17.90
2017-11-21T17:20:18.413Z,25.17
2017-11-21T17:22:49.068Z,25.47
2017-11-21T17:25:19.755Z,23.37
2017-11-21T17:27:50.522Z,23.70
2017-11-21T17:30:21.297Z,30.40
2017-11-21T17:32:52.023Z,32.23
2017-11-21T17:35:29.423Z,31.37
2017-11-21T17:38:02.265Z,37.33
2017-11-21T17:40:33.464Z,33.50
2017-11-21T17:43:04.802Z,42.70
2017-11-21T17:45:35.240Z,40.80
2017-11-21T17:48:05.643Z,40.10
2017-11-21T17:50:39.183Z,38.10
2017-11-21T17:53:11.440Z,44.97
2017-11-21T17:55:53.218Z,56.53
2017-11-21T17:58:28.863Z,45.47
2017-11-21T18:01:03.077Z,44.13
2017-11-21T18:03:35.347Z,46.07
2017-11-21T18:06:05.649Z,50.13
2017-11-21T18:08:36.627Z,43.80
2017-11-21T18:11:10.009Z,45.50
2017-11-21T18:13:41.272Z,44.47
2017-11-21T18:16:13.397Z,44.93
2017-11-21T18:18:44.863Z,46.40
2017-11-21T18:21:15.568Z,40.80
2017-11-21T18:23:46.355Z,49.40
2017-11-21T18:26:17.817Z,52.27
2017-11-21T18:28:48.764Z,45.73
2017-11-21T18:31:19.479Z,46.43
2017-11-21T18:33:49.990Z,49.30
2017-11-21T18:36:20.356Z,46.17
2017-11-21T18:38:50.798Z,50.10
2017-11-21T18:41:26.365Z,57.10
2017-11-21T18:43:57.096Z,46.30
2017-11-21T18:46:28.313Z,50.20
2017-11-21T18:49:01.268Z,50.00
2017-11-21T18:51:32.141Z,54.10
2017-11-21T18:54:02.837Z,45.30
2017-11-21T18:56:33.612Z,52.70
2017-11-21T18:59:05.517Z,43.93
2017-11-21T19:01:36.389Z,52.90
2017-11-21T19:04:09.559Z,48.40
2017-11-21T19:06:40.238Z,56.13
2017-11-21T19:09:10.707Z,62.63
2017-11-21T19:11:42.041Z,56.27
2017-11-21T19:14:13.817Z,60.40
2017-11-21T19:16:45.420Z,52.00
2017-11-21T19:19:17.200Z,52.50
2017-11-21T19:21:48.756Z,59.33
2017-11-21T19:24:25.321Z,56.77
2017-11-21T19:26:55.675Z,51.60
2017-11-21T19:29:30.027Z,51.30
2017-11-21T19:32:04.536Z,50.80
2017-11-21T19:34:40.957Z,54.63
2017-11-21T19:37:12.780Z,59.17
2017-11-21T19:39:44.596Z,56.20
2017-11-21T19:42:15.069Z,60.03
2017-11-21T19:44:47.224Z,50.37
2017-11-21T19:47:17.917Z,58.03
2017-11-21T19:49:48.631Z,52.30
2017-11-21T19:52:19.251Z,48.90
2017-11-21T19:54:49.932Z,48.33
2017-11-21T19:57:20.842Z,47.67
2017-11-21T19:59:53.548Z,58.03
2017-11-21T20:02:26.524Z,59.23
2017-11-21T20:04:59.519Z,52.57
2017-11-21T20:07:31.226Z,56.50
2017-11-21T20:10:02.576Z,46.90
2017-11-21T20:12:37.315Z,49.67
2017-11-21T20:15:08.006Z,50.67
2017-11-21T20:17:38.630Z,51.37
2017-11-21T20:20:11.724Z,52.80
2017-11-21T20:22:44.270Z,53.97
2017-11-21T20:25:15.363Z,44.30
2017-11-21T20:27:46.178Z,49.00
2017-11-21T20:30:17.160Z,42.87
2017-11-21T20:32:47.880Z,50.13
2017-11-21T20:35:18.625Z,49.27
2017-11-21T20:37:49.076Z,52.30
2017-11-21T20:40:19.661Z,47.67
2017-11-21T20:42:52.535Z,45.37
2017-11-21T20:45:24.353Z,52.07
2017-11-21T20:48:00.169Z,55.70
2017-11-21T20:50:30.913Z,54.83
2017-11-21T20:53:01.244Z,44.53
2017-11-21T20:55:32.468Z,46.33
2017-11-21T20:58:03.578Z,40.50
2017-11-21T21:00:34.499Z,49.17
2017-11-21T21:03:05.138Z,47.57
2017-11-21T21:05:39.487Z,43.13
2017-11-21T21:08:09.732Z,56.77
2017-11-21T21:10:40.056Z,42.20
2017-11-21T21:13:13.056Z,38.63
2017-11-21T21:15:44.236Z,39.43
2017-11-21T21:18:14.835Z,39.90
2017-11-21T21:20:45.182Z,47.60
2017-11-21T21:23:15.664Z,44.07
2017-11-21T21:25:46.743Z,41.53
2017-11-21T21:28:18.124Z,36.93
2017-11-21T21:30:48.423Z,43.47
2017-11-21T21:33:19.391Z,43.93
2017-11-21T21:35:50.136Z,37.10
2017-11-21T21:38:21.238Z,35.37
2017-11-21T21:40:53.634Z,44.80
2017-11-21T21:43:28.318Z,47.03
2017-11-21T21:45:59.575Z,35.57
2017-11-21T21:48:44.386Z,34.63
2017-11-21T21:51:16.114Z,38.80
2017-11-21T21:53:48.121Z,38.87
2017-11-21T21:56:19.086Z,38.47
2017-11-21T21:58:51.069Z,37.57
2017-11-21T22:01:22.585Z,40.10
2017-11-21T22:03:53.758Z,39.33
2017-11-21T22:06:24.934Z,36.47
2017-11-21T22:08:56.054Z,40.30
2017-11-21T22:11:27.767Z,43.40
2017-11-21T22:13:59.911Z,43.60
2017-11-21T22:16:31.094Z,44.73
2017-11-21T22:19:01.515Z,50.77
2017-11-21T22:21:35.134Z,50.13
2017-11-21T22:24:06.226Z,42.63
2017-11-21T22:26:39.862Z,47.47
2017-11-21T22:29:10.503Z,45.27
2017-11-21T22:31:41.559Z,42.87
2017-11-21T22:34:16.895Z,45.30
2017-11-21T22:36:50.624Z,41.77
2017-11-21T22:39:21.230Z,46.27
2017-11-21T22:41:54.400Z,52.17
2017-11-21T22:44:25.832Z,44.83
2017-11-21T22:46:56.132Z,40.10
2017-11-21T22:49:34.170Z,49.23
2017-11-21T22:52:05.116Z,39.63
2017-11-21T22:54:37.771Z,40.43
2017-11-21T22:57:15.885Z,48.03
2017-11-21T22:59:56.752Z,41.93
2017-11-21T23:02:27.785Z,39.43
2017-11-21T23:04:58.837Z,45.90
2017-11-21T23:07:31.029Z,39.80
2017-11-21T23:10:02.473Z,40.27
2017-11-21T23:13:00.886Z,42.00
2017-11-21T23:21:49.376Z,42.87
2017-11-21T23:24:28.803Z,44.93
2017-11-21T23:27:15.501Z,41.80
2017-11-21T23:29:46.122Z,38.60
2017-11-21T23:32:22.809Z,45.17
2017-11-21T23:34:58.993Z,42.33
2017-11-21T23:49:58.191Z,49.93
2017-11-21T23:52:35.501Z,36.50
2017-11-21T23:55:10.423Z,41.30
2017-11-21T23:57:42.567Z,45.53
